Time;durP1;ratioP1;P1;durP2;ratioP2;P2;SDS_P1;SDS_P2;PMS_P1;PMS_P2;Temp;Humidity;BMP_temperature;BMP_pressure;BME280_temperature;BME280_humidity;BME280_pressure;Samples;Min_cycle;Max_cycle;Signal;HPM_P1;HPM_P2
2024/01/07 00:01:56;;;;;;;20.75;8.40;;;;;;;5.75;83.31;92451.78;5085179;28;20024;-72
2024/01/07 00:04:21;;;;;;;16.85;8.25;;;;;;;5.78;82.97;92445.88;5085292;28;20027;-73
2024/01/07 00:06:47;;;;;;;18.40;8.50;;;;;;;5.79;82.61;92449.28;5085679;28;20016;-74
2024/01/07 00:09:12;;;;;;;18.10;8.57;;;;;;;5.81;82.55;92432.00;5085343;28;20415;-73
2024/01/07 00:11:38;;;;;;;19.30;8.00;;;;;;;5.78;82.34;92432.66;5084992;28;20082;-73
2024/01/07 00:14:04;;;;;;;15.93;7.45;;;;;;;5.76;82.50;92432.19;5085080;28;20035;-74
2024/01/07 00:16:29;;;;;;;26.05;7.90;;;;;;;5.79;82.66;92422.84;5085229;28;20017;-74
2024/01/07 00:18:55;;;;;;;20.80;8.63;;;;;;;5.74;82.77;92412.44;5085071;28;20021;-74
2024/01/07 00:21:20;;;;;;;19.63;8.25;;;;;;;5.76;82.32;92426.91;5083753;28;20047;-74
2024/01/07 00:23:45;;;;;;;23.73;7.88;;;;;;;5.78;82.37;92416.78;5084851;28;20024;-74
2024/01/07 00:26:11;;;;;;;25.48;8.57;;;;;;;5.79;82.61;92420.97;5084848;28;20017;-74
2024/01/07 00:28:36;;;;;;;20.20;8.05;;;;;;;5.80;82.91;92414.59;5084800;28;20018;-74
2024/01/07 00:31:01;;;;;;;20.00;8.38;;;;;;;5.85;83.04;92404.94;5084749;28;20070;-74
2024/01/07 00:33:27;;;;;;;23.08;9.32;;;;;;;5.60;83.92;92404.72;5084669;28;20046;-75
2024/01/07 00:35:52;;;;;;;16.17;8.25;;;;;;;5.71;83.95;92391.91;5084612;28;20063;-75
2024/01/07 00:38:18;;;;;;;20.88;9.50;;;;;;;5.79;83.28;92386.59;5084627;28;20052;-75
2024/01/07 00:40:43;;;;;;;16.10;8.10;;;;;;;5.83;83.24;92378.81;5084566;28;20020;-75
2024/01/07 00:43:09;;;;;;;21.50;8.73;;;;;;;5.89;82.87;92385.47;5084577;28;20206;-74
2024/01/07 00:45:34;;;;;;;25.35;11.07;;;;;;;5.82;83.32;92371.94;5084655;28;20020;-74
2024/01/07 00:47:59;;;;;;;18.85;8.77;;;;;;;5.83;83.68;92384.09;5084496;28;20311;-75
2024/01/07 00:50:25;;;;;;;17.75;8.55;;;;;;;5.85;83.78;92379.25;5084967;28;20134;-75
2024/01/07 00:52:51;;;;;;;17.42;8.35;;;;;;;5.88;83.89;92359.31;5084925;28;20024;-75
2024/01/07 00:55:17;;;;;;;18.20;8.00;;;;;;;5.88;83.89;92357.44;5084528;28;20096;-74
2024/01/07 00:57:42;;;;;;;13.77;7.88;;;;;;;5.96;83.27;92346.09;5084654;28;20028;-74
2024/01/07 01:00:08;;;;;;;19.67;8.00;;;;;;;6.00;82.86;92338.28;5084906;28;20020;-75
2024/01/07 01:02:35;;;;;;;17.08;8.00;;;;;;;5.99;82.83;92344.69;5085061;28;20020;-75
2024/01/07 01:05:01;;;;;;;14.95;6.80;;;;;;;6.02;82.70;92341.38;5084149;28;20028;-74
2024/01/07 01:07:26;;;;;;;17.40;7.53;;;;;;;6.03;82.26;92343.72;5084037;28;20024;-74
2024/01/07 01:09:52;;;;;;;16.38;7.13;;;;;;;6.05;82.33;92332.81;5084089;28;20096;-74
2024/01/07 01:12:17;;;;;;;17.65;7.82;;;;;;;6.04;82.03;92341.84;5083854;28;20078;-74
2024/01/07 01:14:42;;;;;;;14.27;7.55;;;;;;;6.07;82.31;92335.16;5082766;28;20027;-75
2024/01/07 01:17:08;;;;;;;15.00;7.75;;;;;;;6.05;81.93;92322.25;5083795;28;20047;-77
2024/01/07 01:19:33;;;;;;;18.38;9.30;;;;;;;6.05;81.74;92319.59;5083261;28;20099;-77
2024/01/07 01:21:59;;;;;;;21.88;9.77;;;;;;;6.00;81.88;92311.84;5082355;28;20013;-77
2024/01/07 01:24:24;;;;;;;20.45;10.80;;;;;;;5.99;82.23;92302.38;5082126;28;20008;-75
2024/01/07 01:26:49;;;;;;;19.52;10.02;;;;;;;6.02;82.08;92291.91;5083117;28;20020;-77
2024/01/07 01:29:15;;;;;;;21.23;10.13;;;;;;;6.03;81.96;92276.81;5083671;28;20298;-77
2024/01/07 01:31:40;;;;;;;20.35;10.18;;;;;;;6.03;82.21;92260.94;5082142;28;20048;-77
2024/01/07 01:34:06;;;;;;;21.63;9.52;;;;;;;6.02;82.21;92260.19;5082903;28;20192;-77
2024/01/07 01:36:31;;;;;;;22.35;9.77;;;;;;;6.04;82.09;92257.19;5083658;28;20016;-77
2024/01/07 01:38:57;;;;;;;23.52;11.75;;;;;;;6.02;82.05;92269.97;5083530;28;20021;-77
2024/01/07 01:41:22;;;;;;;18.23;10.70;;;;;;;6.04;81.86;92254.56;5083561;28;20021;-77
2024/01/07 01:43:48;;;;;;;18.17;9.93;;;;;;;6.03;81.88;92242.44;5083310;28;20374;-77
2024/01/07 01:46:14;;;;;;;20.50;10.57;;;;;;;6.08;81.69;92252.81;5083398;28;20043;-76
2024/01/07 01:48:40;;;;;;;19.60;10.95;;;;;;;6.03;81.71;92240.56;5083365;28;20029;-77
2024/01/07 01:51:06;;;;;;;20.40;10.77;;;;;;;5.97;81.80;92225.22;5082103;28;20077;-76
2024/01/07 01:53:33;;;;;;;27.92;11.63;;;;;;;5.85;81.88;92207.38;5083224;28;20031;-77
2024/01/07 01:56:02;;;;;;;22.48;11.52;;;;;;;5.89;82.21;92212.81;5083270;28;20246;-77
2024/01/07 01:58:28;;;;;;;22.30;11.90;;;;;;;5.91;82.25;92210.63;5083074;28;20311;-77
2024/01/07 02:00:54;;;;;;;21.83;10.73;;;;;;;5.92;82.24;92209.50;5083287;28;20330;-76
2024/01/07 02:03:19;;;;;;;17.58;10.20;;;;;;;5.92;82.35;92214.78;5083261;28;20028;-77
2024/01/07 02:05:45;;;;;;;21.85;10.02;;;;;;;5.92;82.57;92204.22;5083009;28;20306;-77
2024/01/07 02:08:11;;;;;;;19.08;10.40;;;;;;;5.91;82.52;92207.97;5083115;28;20378;-77
2024/01/07 02:10:37;;;;;;;21.50;9.90;;;;;;;5.93;82.63;92217.13;5082809;28;20032;-77
2024/01/07 02:13:05;;;;;;;18.60;8.95;;;;;;;5.95;82.30;92220.25;5083114;28;20032;-77
2024/01/07 02:15:31;;;;;;;17.90;8.85;;;;;;;5.93;82.79;92193.31;5083018;28;20031;-78
2024/01/07 02:17:57;;;;;;;16.58;8.80;;;;;;;5.92;82.92;92191.78;5083134;28;20184;-78
2024/01/07 02:20:23;;;;;;;18.70;8.68;;;;;;;5.94;83.57;92188.81;5083086;28;20126;-78
2024/01/07 02:22:48;;;;;;;16.40;8.40;;;;;;;5.98;83.97;92171.22;5082997;28;20062;-77
2024/01/07 02:25:14;;;;;;;11.25;5.82;;;;;;;6.07;84.61;92150.75;5082699;28;20020;-77
2024/01/07 02:27:39;;;;;;;12.55;6.80;;;;;;;6.19;85.56;92126.97;5082650;28;20100;-76
2024/01/07 02:30:05;;;;;;;8.20;4.80;;;;;;;6.33;87.79;92123.25;5083072;28;20040;-76
2024/01/07 02:32:35;;;;;;;6.65;3.53;;;;;;;6.43;89.48;92125.47;5082646;28;20020;-76
2024/01/07 02:35:01;;;;;;;7.00;3.85;;;;;;;6.58;90.25;92103.66;5082830;28;20028;-76
2024/01/07 02:37:27;;;;;;;8.75;3.50;;;;;;;6.73;90.91;92096.16;5082731;28;20024;-78
2024/01/07 02:39:52;;;;;;;6.78;2.75;;;;;;;6.87;91.09;92107.19;5082590;28;20093;-78
2024/01/07 02:42:18;;;;;;;11.48;4.55;;;;;;;6.99;91.04;92109.06;5082831;28;20322;-77
2024/01/07 02:44:43;;;;;;;8.18;3.88;;;;;;;7.15;90.38;92112.56;5081353;28;20103;-77
2024/01/07 02:47:09;;;;;;;7.28;4.00;;;;;;;7.28;89.82;92123.91;5082493;28;20065;-77
2024/01/07 02:49:34;;;;;;;7.03;4.20;;;;;;;7.38;89.40;92122.69;5082685;28;20012;-77
2024/01/07 02:51:59;;;;;;;18.15;9.65;;;;;;;7.45;85.78;92120.25;5082496;28;20092;-77
2024/01/07 02:54:25;;;;;;;19.02;10.48;;;;;;;7.30;84.13;92119.03;5082524;28;20099;-76
2024/01/07 02:56:50;;;;;;;21.33;9.35;;;;;;;7.23;82.75;92113.56;5082494;28;20092;-77
2024/01/07 02:59:16;;;;;;;15.98;7.68;;;;;;;7.25;83.45;92116.63;5082581;28;20013;-77
2024/01/07 03:01:42;;;;;;;15.23;7.85;;;;;;;7.29;83.60;92128.13;5082476;28;20377;-77
2024/01/07 03:04:12;;;;;;;9.73;5.10;;;;;;;7.34;84.42;92125.22;5082543;28;20360;-76
2024/01/07 03:06:37;;;;;;;6.10;3.15;;;;;;;7.46;86.27;92118.38;5082580;28;20044;-76
2024/01/07 03:09:03;;;;;;;4.88;2.70;;;;;;;7.58;87.38;92128.94;5082376;28;20341;-75
2024/01/07 03:11:29;;;;;;;9.38;2.63;;;;;;;7.69;87.78;92140.59;5082169;28;20143;-76
2024/01/07 03:13:55;;;;;;;6.50;2.83;;;;;;;7.78;87.86;92162.47;5082407;28;20024;-76
2024/01/07 03:16:22;;;;;;;10.82;5.55;;;;;;;7.81;86.75;92159.13;5081081;28;20032;-76
2024/01/07 03:18:47;;;;;;;15.75;7.70;;;;;;;7.63;83.10;92157.84;5080900;28;20218;-76
2024/01/07 03:21:23;;;;;;;22.02;9.85;;;;;;;7.50;83.01;92169.59;5082144;28;20023;-76
2024/01/07 03:23:49;;;;;;;18.65;9.80;;;;;;;7.53;82.92;92180.31;5082654;28;20009;-76
2024/01/07 03:26:17;;;;;;;14.52;8.32;;;;;;;7.54;82.54;92175.78;5082552;28;20020;-76
2024/01/07 03:28:42;;;;;;;17.75;9.13;;;;;;;7.48;82.54;92177.88;5082267;28;20024;-75
2024/01/07 03:31:10;;;;;;;19.25;9.32;;;;;;;7.47;82.97;92165.75;5082501;28;20020;-75
2024/01/07 03:33:37;;;;;;;20.80;9.98;;;;;;;7.40;83.82;92166.28;5082458;28;20024;-76
2024/01/07 03:36:10;;;;;;;20.85;8.80;;;;;;;7.44;84.02;92153.16;5082455;28;20025;-76
2024/01/07 03:38:36;;;;;;;19.27;8.43;;;;;;;7.44;84.92;92156.56;5082742;28;20021;-75
2024/01/07 03:41:02;;;;;;;15.70;7.55;;;;;;;7.45;85.21;92162.66;5082709;28;20017;-75
2024/01/07 03:43:29;;;;;;;16.33;7.68;;;;;;;7.36;85.96;92154.81;5082468;28;20043;-76
2024/01/07 03:45:54;;;;;;;18.30;7.97;;;;;;;7.29;86.03;92151.97;5082357;28;20108;-76
2024/01/07 03:48:19;;;;;;;15.85;7.47;;;;;;;7.22;86.11;92139.28;5082421;28;20327;-75
2024/01/07 03:50:45;;;;;;;21.67;7.78;;;;;;;7.22;85.65;92139.28;5085561;28;20051;-75
2024/01/07 03:53:10;;;;;;;16.35;7.50;;;;;;;7.23;85.29;92134.75;5086051;28;20127;-72
2024/01/07 03:55:36;;;;;;;18.85;7.82;;;;;;;7.20;85.36;92138.81;5085834;28;20048;-73
2024/01/07 03:58:02;;;;;;;15.65;7.38;;;;;;;7.22;85.17;92141.16;5086017;28;20111;-73
2024/01/07 04:00:28;;;;;;;15.52;7.57;;;;;;;7.26;84.69;92133.31;5085885;28;20231;-75
2024/01/07 04:02:53;;;;;;;21.25;6.90;;;;;;;7.29;83.91;92132.66;5084269;28;20028;-75
2024/01/07 04:05:19;;;;;;;19.02;7.07;;;;;;;7.22;83.84;92122.59;5084075;28;20017;-74
2024/01/07 04:07:44;;;;;;;13.60;6.70;;;;;;;7.14;84.41;92126.13;5085638;28;20021;-75
2024/01/07 04:10:10;;;;;;;18.67;7.72;;;;;;;7.17;84.66;92130.78;5085165;28;20029;-75
2024/01/07 04:12:36;;;;;;;22.60;7.72;;;;;;;7.16;84.66;92127.34;5084585;28;20041;-76
2024/01/07 04:15:02;;;;;;;16.00;7.20;;;;;;;7.09;84.55;92129.03;5085592;28;20092;-74
2024/01/07 04:17:28;;;;;;;16.90;7.80;;;;;;;7.00;85.06;92127.28;5085147;28;20028;-74
2024/01/07 04:19:54;;;;;;;12.57;6.93;;;;;;;7.03;85.61;92116.00;5085545;28;20318;-74
2024/01/07 04:22:20;;;;;;;14.25;6.75;;;;;;;7.12;85.38;92131.75;5085244;28;20341;-73
2024/01/07 04:24:45;;;;;;;13.93;6.53;;;;;;;7.13;85.09;92122.72;5085445;28;20087;-74
2024/01/07 04:27:11;;;;;;;14.73;6.95;;;;;;;7.17;85.14;92131.56;5084728;28;20024;-74
2024/01/07 04:29:36;;;;;;;14.45;6.45;;;;;;;7.17;85.70;92109.59;5085190;28;20028;-74
2024/01/07 04:32:02;;;;;;;15.02;6.50;;;;;;;7.20;85.99;92104.38;5085181;28;20029;-74
2024/01/07 04:34:28;;;;;;;12.27;5.85;;;;;;;7.26;86.12;92096.97;5085361;28;20024;-75
2024/01/07 04:36:53;;;;;;;14.05;7.53;;;;;;;7.33;86.77;92102.50;5085267;28;20135;-75
2024/01/07 04:39:18;;;;;;;9.45;6.03;;;;;;;7.36;86.89;92088.56;5083956;28;20020;-75
2024/01/07 04:41:44;;;;;;;8.32;4.18;;;;;;;7.36;87.85;92096.50;5085063;28;20044;-75
2024/01/07 04:44:09;;;;;;;7.50;3.00;;;;;;;7.37;90.21;92092.75;5083885;28;20311;-75
2024/01/07 04:46:38;;;;;;;8.98;3.22;;;;;;;7.42;90.69;92105.75;5083885;28;20020;-73
2024/01/07 04:49:03;;;;;;;10.18;3.45;;;;;;;7.39;91.46;92095.09;5085207;28;20063;-74
2024/01/07 04:51:29;;;;;;;6.47;3.08;;;;;;;7.41;90.96;92095.53;5085001;28;20254;-74
2024/01/07 04:53:54;;;;;;;8.55;4.72;;;;;;;7.41;91.63;92092.88;5085042;28;20319;-74
2024/01/07 04:56:20;;;;;;;10.35;3.90;;;;;;;7.48;91.70;92097.59;5084811;28;20131;-74
2024/01/07 04:58:45;;;;;;;9.02;3.35;;;;;;;7.55;91.50;92103.06;5084739;28;20249;-74
2024/01/07 05:01:11;;;;;;;8.55;3.67;;;;;;;7.61;91.13;92109.69;5083332;28;20345;-75
2024/01/07 05:03:37;;;;;;;8.70;3.60;;;;;;;7.69;90.65;92108.78;5084507;28;20024;-74
2024/01/07 05:06:04;;;;;;;7.72;3.90;;;;;;;7.78;90.09;92106.75;5084744;28;20322;-74
2024/01/07 05:08:29;;;;;;;10.57;3.72;;;;;;;7.82;89.96;92091.72;5084538;28;20057;-74
2024/01/07 05:10:55;;;;;;;5.97;3.58;;;;;;;7.89;89.68;92093.00;5084156;28;20104;-75
2024/01/07 05:13:21;;;;;;;10.20;3.83;;;;;;;7.92;88.90;92105.63;5084166;28;20370;-76
2024/01/07 05:15:53;;;;;;;10.20;4.63;;;;;;;7.84;87.54;92102.75;5084011;28;20353;-75
2024/01/07 05:18:20;;;;;;;12.63;4.88;;;;;;;7.73;87.48;92091.06;5084120;28;20024;-75
2024/01/07 05:20:45;;;;;;;12.93;4.95;;;;;;;7.64;87.65;92090.47;5084331;28;20031;-74
2024/01/07 05:23:11;;;;;;;18.77;9.82;;;;;;;7.61;87.81;92091.91;5084182;28;20029;-75
2024/01/07 05:25:36;;;;;;;11.32;4.90;;;;;;;7.57;88.41;92085.75;5084216;28;20028;-75
2024/01/07 05:28:01;;;;;;;10.45;4.68;;;;;;;7.47;88.53;92088.09;5084344;28;20091;-75
2024/01/07 05:30:27;;;;;;;8.60;4.43;;;;;;;7.48;88.78;92092.28;5084122;28;20031;-75
2024/01/07 05:32:52;;;;;;;12.15;5.40;;;;;;;7.50;88.80;92092.72;5084161;28;20020;-75
2024/01/07 05:35:18;;;;;;;13.73;5.03;;;;;;;7.52;88.89;92107.19;5084220;28;20024;-75
2024/01/07 05:37:44;;;;;;;10.85;5.32;;;;;;;7.52;88.48;92101.13;5083584;28;20099;-75
2024/01/07 05:40:10;;;;;;;10.50;5.35;;;;;;;7.53;88.49;92086.72;5083720;28;20215;-75
2024/01/07 05:42:35;;;;;;;8.15;4.43;;;;;;;7.58;88.16;92086.50;5083991;28;20023;-74
2024/01/07 05:45:02;;;;;;;10.32;4.22;;;;;;;7.58;87.92;92068.72;5083870;28;20032;-75
2024/01/07 05:47:28;;;;;;;9.10;4.90;;;;;;;7.60;87.53;92076.34;5083373;28;20039;-75
2024/01/07 05:49:53;;;;;;;10.43;4.50;;;;;;;7.60;87.75;92084.28;5083117;28;20215;-75
2024/01/07 05:52:18;;;;;;;8.15;4.22;;;;;;;7.54;87.65;92086.41;5083127;28;20029;-75
2024/01/07 05:54:44;;;;;;;7.68;4.63;;;;;;;7.56;87.84;92105.41;5083507;28;20055;-74
2024/01/07 05:57:11;;;;;;;7.13;4.35;;;;;;;7.56;87.64;92104.63;5083183;28;20027;-75
2024/01/07 05:59:37;;;;;;;10.30;4.78;;;;;;;7.55;87.57;92093.25;5083270;28;20092;-75
2024/01/07 06:02:02;;;;;;;10.00;4.85;;;;;;;7.48;87.55;92087.75;5083288;28;20016;-75
2024/01/07 06:04:28;;;;;;;9.77;4.82;;;;;;;7.51;87.63;92091.59;5082985;28;20058;-76
2024/01/07 06:06:53;;;;;;;11.48;5.80;;;;;;;7.49;87.63;92080.56;5082879;28;20274;-74
2024/01/07 06:09:19;;;;;;;11.55;5.07;;;;;;;7.46;88.12;92073.28;5082984;28;20095;-74
2024/01/07 06:11:44;;;;;;;11.60;6.38;;;;;;;7.43;88.58;92070.22;5082359;28;20044;-73
2024/01/07 06:14:09;;;;;;;17.58;6.22;;;;;;;7.48;88.82;92079.03;5083009;28;20079;-74
2024/01/07 06:16:35;;;;;;;13.20;6.15;;;;;;;7.48;89.35;92087.75;5081794;28;20311;-74
2024/01/07 06:19:00;;;;;;;9.25;5.85;;;;;;;7.54;88.98;92080.34;5082796;28;20099;-74
2024/01/07 06:21:26;;;;;;;13.75;5.80;;;;;;;7.57;88.88;92079.66;5082913;28;20067;-74
2024/01/07 06:23:52;;;;;;;15.27;4.93;;;;;;;7.61;88.83;92075.22;5082714;28;20101;-75
2024/01/07 06:26:17;;;;;;;11.88;5.75;;;;;;;7.61;88.76;92081.31;5082741;28;20366;-74
2024/01/07 06:28:43;;;;;;;13.45;7.20;;;;;;;7.64;88.54;92090.47;5082620;28;20222;-74
2024/01/07 06:31:08;;;;;;;15.52;7.57;;;;;;;7.66;88.57;92085.59;5082681;28;20028;-74
2024/01/07 06:33:34;;;;;;;13.55;7.43;;;;;;;7.69;88.46;92094.75;5082803;28;20231;-74
2024/01/07 06:36:00;;;;;;;13.18;6.43;;;;;;;7.69;88.10;92097.41;5082571;28;20134;-74
2024/01/07 06:38:25;;;;;;;10.55;6.32;;;;;;;7.70;88.20;92097.06;5082626;28;20024;-74
2024/01/07 06:40:51;;;;;;;11.65;6.25;;;;;;;7.71;88.19;92103.13;5082562;28;20372;-74
2024/01/07 06:43:16;;;;;;;9.45;5.50;;;;;;;7.72;88.05;92108.13;5082587;28;20024;-74
2024/01/07 06:45:43;;;;;;;17.58;6.55;;;;;;;7.75;87.73;92115.38;5081589;28;20338;-74
2024/01/07 06:48:08;;;;;;;18.15;8.48;;;;;;;7.71;87.88;92119.06;5082509;28;20028;-74
2024/01/07 06:50:34;;;;;;;15.18;6.45;;;;;;;7.71;88.17;92116.41;5082607;28;20039;-74
2024/01/07 06:52:59;;;;;;;14.40;6.70;;;;;;;7.74;88.23;92121.03;5082350;28;20027;-74
2024/01/07 06:55:25;;;;;;;14.02;7.35;;;;;;;7.74;88.09;92113.84;5082428;28;20051;-74
2024/01/07 06:57:50;;;;;;;15.13;6.75;;;;;;;7.76;87.95;92114.28;5082426;28;20044;-73
2024/01/07 07:00:16;;;;;;;11.75;6.60;;;;;;;7.77;87.83;92115.03;5081194;28;20036;-74
2024/01/07 07:02:41;;;;;;;16.30;8.07;;;;;;;7.79;88.17;92124.19;5082335;28;20047;-73
2024/01/07 07:05:08;;;;;;;16.50;7.28;;;;;;;7.81;88.13;92116.69;5082400;28;20095;-74
2024/01/07 07:07:33;;;;;;;13.52;7.55;;;;;;;7.84;88.47;92120.56;5082358;28;20054;-73
2024/01/07 07:09:59;;;;;;;18.10;8.75;;;;;;;7.89;88.35;92112.34;5082393;28;20024;-74
2024/01/07 07:12:24;;;;;;;11.80;7.35;;;;;;;7.92;88.51;92116.22;5081894;28;20238;-73
2024/01/07 07:14:50;;;;;;;15.82;7.13;;;;;;;7.95;88.76;92120.84;5082429;28;20016;-74
2024/01/07 07:17:15;;;;;;;19.15;6.68;;;;;;;8.00;88.65;92100.16;5082230;28;20021;-75
2024/01/07 07:19:40;;;;;;;15.63;8.05;;;;;;;8.08;88.80;92108.28;5082210;28;20054;-75
2024/01/07 07:22:06;;;;;;;16.40;7.65;;;;;;;8.13;88.47;92095.53;5082138;28;20024;-75
2024/01/07 07:24:31;;;;;;;14.38;8.15;;;;;;;8.17;88.76;92085.03;5083721;28;20261;-75
2024/01/07 07:26:57;;;;;;;11.95;5.93;;;;;;;8.22;88.67;92098.81;5086042;28;20358;-76
2024/01/07 07:29:22;;;;;;;17.08;6.13;;;;;;;8.26;88.40;92101.53;5086012;28;20052;-76
2024/01/07 07:31:48;;;;;;;9.02;5.32;;;;;;;8.33;87.96;92111.59;5085789;28;20215;-74
2024/01/07 07:34:13;;;;;;;8.15;4.90;;;;;;;8.40;87.51;92103.78;5085899;28;20028;-75
2024/01/07 07:36:40;;;;;;;9.48;5.40;;;;;;;8.48;86.36;92115.38;5085768;28;20047;-75
2024/01/07 07:39:06;;;;;;;7.72;4.53;;;;;;;8.54;85.92;92093.53;5086433;28;20016;-75
2024/01/07 07:41:31;;;;;;;14.35;5.03;;;;;;;8.59;85.43;92089.88;5086352;28;20043;-75
2024/01/07 07:43:57;;;;;;;10.15;5.38;;;;;;;8.62;85.22;92095.25;5085987;28;20046;-74
2024/01/07 07:46:22;;;;;;;23.20;8.02;;;;;;;8.70;84.38;92101.50;5085750;28;20145;-74
2024/01/07 07:48:48;;;;;;;14.93;7.95;;;;;;;8.72;84.79;92096.63;5085810;28;20017;-75
2024/01/07 07:51:13;;;;;;;10.25;5.45;;;;;;;8.77;85.02;92090.28;5085471;28;20059;-75
2024/01/07 07:53:42;;;;;;;12.57;5.88;;;;;;;8.88;83.92;92091.31;5085674;28;20027;-74
2024/01/07 07:56:08;;;;;;;15.15;6.03;;;;;;;8.90;83.54;92089.06;5085525;28;20032;-74
2024/01/07 07:58:33;;;;;;;15.65;5.47;;;;;;;8.78;82.71;92091.84;5085725;28;20024;-74
2024/01/07 08:00:59;;;;;;;7.85;4.95;;;;;;;8.75;82.68;92095.16;5085330;28;20054;-76
2024/01/07 08:03:24;;;;;;;12.30;5.25;;;;;;;8.87;81.68;92102.28;5085441;28;20370;-74
2024/01/07 08:05:50;;;;;;;9.07;4.85;;;;;;;8.87;81.19;92097.72;5085349;28;20311;-73
2024/01/07 08:08:16;;;;;;;11.40;5.03;;;;;;;8.84;81.06;92101.84;5085178;28;20028;-74
2024/01/07 08:10:42;;;;;;;9.80;4.78;;;;;;;8.87;81.65;92091.66;5084976;28;20029;-74
2024/01/07 08:13:08;;;;;;;9.57;4.68;;;;;;;8.91;82.17;92098.56;5085396;28;20095;-74
2024/01/07 08:15:34;;;;;;;6.75;4.15;;;;;;;8.97;81.92;92091.88;5085450;28;20074;-74
2024/01/07 08:18:02;;;;;;;10.27;4.88;;;;;;;9.06;81.37;92096.22;5085131;28;20032;-76
2024/01/07 08:20:27;;;;;;;13.15;5.53;;;;;;;9.11;81.45;92098.63;5083911;28;20029;-75
2024/01/07 08:22:53;;;;;;;8.05;4.53;;;;;;;9.17;81.22;92081.31;5085090;28;20031;-74
2024/01/07 08:25:18;;;;;;;10.60;4.57;;;;;;;9.24;80.40;92086.78;5085112;28;20249;-75
2024/01/07 08:27:44;;;;;;;7.47;4.13;;;;;;;9.33;79.23;92089.25;5085209;28;20114;-74
2024/01/07 08:30:10;;;;;;;10.88;4.60;;;;;;;9.38;79.17;92096.94;5085099;28;20026;-73
2024/01/07 08:32:37;;;;;;;10.45;4.38;;;;;;;9.46;78.93;92082.66;5084825;28;20100;-74
2024/01/07 08:35:03;;;;;;;12.65;5.90;;;;;;;9.52;78.95;92085.81;5085244;28;20016;-80
2024/01/07 08:37:28;;;;;;;10.90;5.25;;;;;;;9.59;80.55;92108.03;5085136;28;20032;-78
2024/01/07 08:39:56;;;;;;;8.18;4.47;;;;;;;9.63;80.29;92100.13;5085278;28;20196;-81
2024/01/07 08:42:22;;;;;;;9.15;4.95;;;;;;;9.68;78.95;92091.84;5085344;28;20226;-81
2024/01/07 08:44:47;;;;;;;10.60;5.15;;;;;;;9.76;78.39;92088.22;5084186;28;20037;-80
2024/01/07 08:47:13;;;;;;;13.75;5.68;;;;;;;9.83;78.33;92085.69;5085005;28;20066;-84
2024/01/07 08:49:38;;;;;;;10.93;4.63;;;;;;;9.66;77.88;92085.34;5084928;28;20274;-76
2024/01/07 08:52:04;;;;;;;9.65;4.45;;;;;;;9.85;77.82;92093.34;5084840;28;20307;-81
2024/01/07 08:54:30;;;;;;;9.48;4.63;;;;;;;9.87;77.32;92090.31;5084636;28;20183;-80
2024/01/07 08:56:55;;;;;;;7.90;5.18;;;;;;;9.80;77.47;92074.97;5085246;28;20294;-80
2024/01/07 08:59:21;;;;;;;11.68;5.97;;;;;;;9.90;79.09;92073.66;5084809;28;20028;-79
2024/01/07 09:01:46;;;;;;;10.80;5.95;;;;;;;10.07;78.82;92075.84;5084816;28;20342;-76
2024/01/07 09:04:11;;;;;;;10.73;6.30;;;;;;;10.14;78.49;92068.00;5084561;28;20021;-80
2024/01/07 09:06:37;;;;;;;16.88;6.55;;;;;;;10.14;78.45;92065.34;5083429;28;20070;-78
2024/01/07 09:09:06;;;;;;;12.13;5.50;;;;;;;10.22;78.76;92088.31;5084711;28;20307;-83
2024/01/07 09:11:32;;;;;;;16.95;6.00;;;;;;;10.25;77.71;92073.50;5084816;28;20136;-84
2024/01/07 09:13:57;;;;;;;12.75;6.97;;;;;;;10.27;76.82;92083.81;5083953;28;20021;-83
2024/01/07 09:16:22;;;;;;;13.98;6.25;;;;;;;10.32;77.87;92100.31;5081983;28;20027;-80
2024/01/07 09:18:48;;;;;;;12.35;6.43;;;;;;;10.46;78.15;92091.00;5083195;28;20065;-80
2024/01/07 09:21:15;;;;;;;11.73;5.95;;;;;;;10.61;78.11;92092.81;5084259;28;20012;-78
2024/01/07 09:23:41;;;;;;;18.10;7.95;;;;;;;10.75;77.70;92084.28;5082708;28;20269;-80
2024/01/07 09:26:07;;;;;;;13.32;6.40;;;;;;;10.91;77.57;92092.09;5083812;28;20223;-79
2024/01/07 09:28:32;;;;;;;12.98;5.85;;;;;;;11.07;75.57;92094.63;5083127;28;20134;-80
2024/01/07 09:30:57;;;;;;;10.18;6.75;;;;;;;11.10;75.38;92093.94;5081991;28;20029;-81
2024/01/07 09:33:23;;;;;;;10.88;6.82;;;;;;;11.16;74.85;92087.16;5082472;28;20058;-82
2024/01/07 09:35:50;;;;;;;17.73;6.82;;;;;;;11.23;74.32;92081.91;5082441;28;20330;-81
2024/01/07 09:38:16;;;;;;;14.32;6.63;;;;;;;11.28;74.34;92081.63;5082235;28;20031;-82
2024/01/07 09:40:41;;;;;;;10.75;6.25;;;;;;;11.27;73.83;92073.97;5082446;28;20025;-82
2024/01/07 09:43:08;;;;;;;10.35;6.35;;;;;;;11.34;74.09;92077.50;5082624;28;20025;-81
2024/01/07 09:45:36;;;;;;;11.43;7.05;;;;;;;11.44;73.97;92066.22;5083845;28;20043;-82
2024/01/07 09:48:02;;;;;;;10.95;6.35;;;;;;;11.50;72.50;92077.34;5083237;28;20016;-81
2024/01/07 09:50:27;;;;;;;13.57;6.55;;;;;;;11.37;71.82;92071.44;5082847;28;20023;-81
2024/01/07 09:52:58;;;;;;;12.80;6.95;;;;;;;11.33;71.97;92077.88;5083851;28;20032;-84
2024/01/07 09:55:32;;;;;;;10.68;6.20;;;;;;;11.30;71.82;92082.03;5083868;28;20222;-82
2024/01/07 09:57:58;;;;;;;12.57;6.72;;;;;;;11.25;71.77;92069.00;5083949;28;20107;-82
2024/01/07 10:00:26;;;;;;;10.35;6.68;;;;;;;11.00;72.40;92064.09;5083390;28;20058;-82
2024/01/07 10:02:52;;;;;;;11.65;6.75;;;;;;;10.94;72.80;92068.19;5083635;28;20322;-82
2024/01/07 10:05:17;;;;;;;14.07;5.90;;;;;;;10.84;72.44;92063.47;5083408;28;20095;-82
2024/01/07 10:07:42;;;;;;;13.00;6.40;;;;;;;10.80;73.18;92065.31;5083600;28;20138;-80
2024/01/07 10:10:15;;;;;;;13.48;6.22;;;;;;;10.80;73.49;92055.41;5083521;28;20020;-82
2024/01/07 10:12:41;;;;;;;9.23;5.60;;;;;;;10.81;72.84;92056.97;5083105;28;20047;-82
2024/01/07 10:15:07;;;;;;;9.38;5.90;;;;;;;10.88;72.68;92050.97;5082780;28;20215;-82
2024/01/07 10:17:33;;;;;;;13.27;7.25;;;;;;;10.96;73.41;92044.59;5083086;28;20024;-81
2024/01/07 10:19:58;;;;;;;12.00;6.50;;;;;;;11.08;73.90;92032.19;5082217;28;20027;-78
2024/01/07 10:22:24;;;;;;;11.65;6.35;;;;;;;11.13;73.09;92055.88;5083075;28;20263;-82
2024/01/07 10:24:52;;;;;;;10.50;6.38;;;;;;;11.22;73.42;92059.06;5083171;28;20028;-81
2024/01/07 10:27:17;;;;;;;13.10;6.82;;;;;;;11.28;73.43;92020.28;5083055;28;20050;-82
2024/01/07 10:29:43;;;;;;;11.23;6.50;;;;;;;11.36;73.20;92026.47;5083004;28;20059;-82
2024/01/07 10:32:08;;;;;;;10.38;6.70;;;;;;;11.40;72.69;92033.38;5081485;28;20333;-82
2024/01/07 10:34:35;;;;;;;14.95;6.00;;;;;;;11.45;72.44;92018.97;5083581;28;20028;-83
2024/01/07 10:37:03;;;;;;;12.43;7.43;;;;;;;11.51;72.30;92022.09;5082407;28;20214;-83
2024/01/07 10:39:30;;;;;;;14.60;6.90;;;;;;;11.50;71.41;92025.88;5083073;28;20028;-83
2024/01/07 10:41:59;;;;;;;11.95;7.38;;;;;;;11.47;72.18;92030.03;5083354;28;20385;-82
2024/01/07 10:44:30;;;;;;;15.77;7.40;;;;;;;11.52;72.02;92028.94;5081914;28;20020;-82
2024/01/07 10:46:57;;;;;;;13.63;7.43;;;;;;;11.59;71.34;92015.69;5083178;28;20029;-82
2024/01/07 10:49:24;;;;;;;15.88;8.15;;;;;;;11.66;71.72;92018.44;5082868;28;20025;-82
2024/01/07 10:52:04;;;;;;;15.65;6.68;;;;;;;11.73;71.65;92018.53;5083107;28;20066;-83
2024/01/07 10:54:30;;;;;;;13.82;6.15;;;;;;;11.81;70.92;92014.81;5083202;28;20219;-83
2024/01/07 10:57:21;;;;;;;10.68;6.45;;;;;;;11.89;70.66;92025.59;5082977;28;20043;-82
2024/01/07 10:59:47;;;;;;;9.10;5.25;;;;;;;11.99;70.21;92019.59;5083546;28;20085;-82
2024/01/07 11:02:13;;;;;;;11.25;6.13;;;;;;;12.05;69.47;92020.81;5087468;28;20245;-82
2024/01/07 11:04:41;;;;;;;13.43;6.10;;;;;;;12.08;69.35;92006.69;5086925;28;20032;-81
2024/01/07 11:07:37;;;;;;;13.13;6.07;;;;;;;12.14;68.99;92013.25;5087492;28;20039;-82
2024/01/07 11:10:10;;;;;;;9.10;5.78;;;;;;;12.22;69.13;92022.09;5087216;28;20210;-82
2024/01/07 11:12:35;;;;;;;9.25;5.70;;;;;;;12.33;68.65;92016.84;5087272;28;20041;-81
2024/01/07 11:15:02;;;;;;;12.55;5.57;;;;;;;12.42;67.36;92020.00;5087028;28;20119;-80
2024/01/07 11:17:36;;;;;;;13.48;6.07;;;;;;;12.48;66.86;92023.09;5087340;28;20103;-80
2024/01/07 11:20:06;;;;;;;14.93;6.60;;;;;;;12.54;66.52;92009.03;5086730;28;20028;-78
2024/01/07 11:22:32;;;;;;;11.30;5.75;;;;;;;12.57;66.22;92015.53;5086939;28;20042;-76
2024/01/07 11:24:59;;;;;;;24.15;5.55;;;;;;;12.58;66.25;92022.41;5086407;28;20238;-71
2024/01/07 11:27:26;;;;;;;10.40;5.57;;;;;;;12.58;66.30;92025.84;5086520;28;20360;-72